Terminal Aerodrome Forecast
Issued by NWS Wilmington, OH

Current Version | Previous Version | Text Only | Print | Product List | Glossary Off
Versions: 1 2 3 4 5 6 7 8 9 10 11 12 13 14 15 16 17 18 19 20 21 22 23 24 25 26 27 28 29 30 31 32 33 34 35 36

597
FTUS41 KILN 260541
TAFCVG
TAF
KCVG 260541Z 2606/2712 21008KT P6SM SKC
     FM261000 23011KT P6SM SCT025 BKN050
     FM261800 25008KT P6SM VCTS BKN050CB
      TEMPO 2623/2701 3SM -TSRA BKN035CB
     FM270100 03006KT P6SM VCSH SCT025 BKN100
     FM270600 07007KT 5SM BR OVC018=

USA.gov is the U.S. government's official web portal to all federal, state and local government web resources and services.